sensor_id;sensor_type;location;lat;lon;timestamp;temperature;humidity
18218;DHT22;9234;49.344;11.120;2023-09-19T00:00:47;16.80;99.90
18218;DHT22;9234;49.344;11.120;2023-09-19T00:03:16;16.70;99.90
18218;DHT22;9234;49.344;11.120;2023-09-19T00:05:44;16.70;99.90
18218;DHT22;9234;49.344;11.120;2023-09-19T00:08:14;16.70;99.90
18218;DHT22;9234;49.344;11.120;2023-09-19T00:10:43;16.60;99.90
18218;DHT22;9234;49.344;11.120;2023-09-19T00:13:11;16.60;99.90
18218;DHT22;9234;49.344;11.120;2023-09-19T00:15:45;16.60;99.90
18218;DHT22;9234;49.344;11.120;2023-09-19T00:18:17;16.60;99.90
18218;DHT22;9234;49.344;11.120;2023-09-19T00:20:47;16.50;99.90
18218;DHT22;9234;49.344;11.120;2023-09-19T00:23:17;16.50;99.90
18218;DHT22;9234;49.344;11.120;2023-09-19T00:25:46;16.50;99.90
18218;DHT22;9234;49.344;11.120;2023-09-19T00:28:15;16.50;99.90
18218;DHT22;9234;49.344;11.120;2023-09-19T00:30:46;16.50;99.90
18218;DHT22;9234;49.344;11.120;2023-09-19T00:33:17;16.50;99.90
18218;DHT22;9234;49.344;11.120;2023-09-19T00:35:49;16.40;99.90
18218;DHT22;9234;49.344;11.120;2023-09-19T00:38:19;16.50;99.90
18218;DHT22;9234;49.344;11.120;2023-09-19T00:40:51;16.50;99.90
18218;DHT22;9234;49.344;11.120;2023-09-19T00:43:21;16.40;99.90
18218;DHT22;9234;49.344;11.120;2023-09-19T00:45:55;16.40;99.90
18218;DHT22;9234;49.344;11.120;2023-09-19T00:48:26;16.40;99.90
18218;DHT22;9234;49.344;11.120;2023-09-19T00:50:57;16.40;99.90
18218;DHT22;9234;49.344;11.120;2023-09-19T00:53:32;16.30;99.90
18218;DHT22;9234;49.344;11.120;2023-09-19T00:56:03;16.30;99.90
18218;DHT22;9234;49.344;11.120;2023-09-19T00:58:32;16.20;99.90
18218;DHT22;9234;49.344;11.120;2023-09-19T01:01:04;16.20;99.90
18218;DHT22;9234;49.344;11.120;2023-09-19T01:03:36;16.20;99.90
18218;DHT22;9234;49.344;11.120;2023-09-19T01:06:06;16.10;99.90
18218;DHT22;9234;49.344;11.120;2023-09-19T01:08:35;16.00;99.90
18218;DHT22;9234;49.344;11.120;2023-09-19T01:11:11;16.00;99.90
18218;DHT22;9234;49.344;11.120;2023-09-19T01:13:52;16.00;99.90
18218;DHT22;9234;49.344;11.120;2023-09-19T01:16:44;15.90;99.90
18218;DHT22;9234;49.344;11.120;2023-09-19T01:20:09;15.90;99.90
18218;DHT22;9234;49.344;11.120;2023-09-19T01:22:53;15.90;99.90
18218;DHT22;9234;49.344;11.120;2023-09-19T01:29:00;15.90;99.90
18218;DHT22;9234;49.344;11.120;2023-09-19T01:31:42;16.00;99.90
18218;DHT22;9234;49.344;11.120;2023-09-19T01:34:13;16.00;99.90
18218;DHT22;9234;49.344;11.120;2023-09-19T01:36:41;16.00;99.90
18218;DHT22;9234;49.344;11.120;2023-09-19T01:39:13;16.00;99.90
18218;DHT22;9234;49.344;11.120;2023-09-19T01:41:51;16.10;99.90
18218;DHT22;9234;49.344;11.120;2023-09-19T01:44:35;16.10;99.90
18218;DHT22;9234;49.344;11.120;2023-09-19T01:47:28;16.10;99.90
18218;DHT22;9234;49.344;11.120;2023-09-19T01:50:07;16.10;99.90
18218;DHT22;9234;49.344;11.120;2023-09-19T01:52:47;16.10;99.90
18218;DHT22;9234;49.344;11.120;2023-09-19T01:55:26;16.10;99.90
18218;DHT22;9234;49.344;11.120;2023-09-19T01:58:01;16.10;99.90
18218;DHT22;9234;49.344;11.120;2023-09-19T02:00:36;16.10;99.90
18218;DHT22;9234;49.344;11.120;2023-09-19T02:03:10;16.00;99.90
18218;DHT22;9234;49.344;11.120;2023-09-19T02:05:41;16.10;99.90
18218;DHT22;9234;49.344;11.120;2023-09-19T02:08:17;16.10;99.90
18218;DHT22;9234;49.344;11.120;2023-09-19T02:10:47;16.10;99.90
18218;DHT22;9234;49.344;11.120;2023-09-19T02:13:16;16.10;99.90
18218;DHT22;9234;49.344;11.120;2023-09-19T02:15:46;16.20;99.90
18218;DHT22;9234;49.344;11.120;2023-09-19T02:18:16;16.20;99.90
18218;DHT22;9234;49.344;11.120;2023-09-19T02:20:45;16.20;99.90
18218;DHT22;9234;49.344;11.120;2023-09-19T02:23:14;16.20;99.90
18218;DHT22;9234;49.344;11.120;2023-09-19T02:25:51;16.20;99.90
18218;DHT22;9234;49.344;11.120;2023-09-19T02:28:21;16.30;99.90
18218;DHT22;9234;49.344;11.120;2023-09-19T02:30:50;16.30;99.90
18218;DHT22;9234;49.344;11.120;2023-09-19T02:33:22;16.30;99.90
18218;DHT22;9234;49.344;11.120;2023-09-19T02:35:55;16.30;99.90
18218;DHT22;9234;49.344;11.120;2023-09-19T02:38:24;16.30;99.90
18218;DHT22;9234;49.344;11.120;2023-09-19T02:40:53;16.30;99.90
18218;DHT22;9234;49.344;11.120;2023-09-19T02:43:22;16.30;99.90
18218;DHT22;9234;49.344;11.120;2023-09-19T02:45:51;16.30;99.90
18218;DHT22;9234;49.344;11.120;2023-09-19T02:48:24;16.30;99.90
18218;DHT22;9234;49.344;11.120;2023-09-19T02:50:53;16.30;99.90
18218;DHT22;9234;49.344;11.120;2023-09-19T02:53:22;16.40;99.90
18218;DHT22;9234;49.344;11.120;2023-09-19T02:55:50;16.40;99.90
18218;DHT22;9234;49.344;11.120;2023-09-19T02:58:21;16.40;99.90
18218;DHT22;9234;49.344;11.120;2023-09-19T03:00:52;16.40;99.90
18218;DHT22;9234;49.344;11.120;2023-09-19T03:03:24;16.40;99.90
18218;DHT22;9234;49.344;11.120;2023-09-19T03:05:56;16.40;99.90
18218;DHT22;9234;49.344;11.120;2023-09-19T03:08:25;16.50;99.90
18218;DHT22;9234;49.344;11.120;2023-09-19T03:10:54;16.50;99.90
18218;DHT22;9234;49.344;11.120;2023-09-19T03:13:22;16.50;99.90
18218;DHT22;9234;49.344;11.120;2023-09-19T03:15:53;16.50;99.90
18218;DHT22;9234;49.344;11.120;2023-09-19T03:18:26;16.50;99.90
18218;DHT22;9234;49.344;11.120;2023-09-19T03:20:56;16.50;99.90
18218;DHT22;9234;49.344;11.120;2023-09-19T03:23:27;16.50;99.90
18218;DHT22;9234;49.344;11.120;2023-09-19T03:25:56;16.50;99.90
18218;DHT22;9234;49.344;11.120;2023-09-19T03:28:26;16.50;99.90
18218;DHT22;9234;49.344;11.120;2023-09-19T03:30:59;16.40;99.90
18218;DHT22;9234;49.344;11.120;2023-09-19T03:33:31;16.40;99.90
18218;DHT22;9234;49.344;11.120;2023-09-19T03:36:02;16.40;99.90
18218;DHT22;9234;49.344;11.120;2023-09-19T03:38:33;16.40;99.90
18218;DHT22;9234;49.344;11.120;2023-09-19T03:41:02;16.40;99.90
18218;DHT22;9234;49.344;11.120;2023-09-19T03:43:33;16.40;99.90
18218;DHT22;9234;49.344;11.120;2023-09-19T03:46:02;16.40;99.90
18218;DHT22;9234;49.344;11.120;2023-09-19T03:48:34;16.40;99.90
18218;DHT22;9234;49.344;11.120;2023-09-19T03:51:02;16.40;99.90
18218;DHT22;9234;49.344;11.120;2023-09-19T03:53:31;16.40;99.90
18218;DHT22;9234;49.344;11.120;2023-09-19T03:56:00;16.40;99.90
18218;DHT22;9234;49.344;11.120;2023-09-19T03:58:32;16.40;99.90
18218;DHT22;9234;49.344;11.120;2023-09-19T04:01:05;16.40;99.90
18218;DHT22;9234;49.344;11.120;2023-09-19T04:03:35;16.40;99.90
18218;DHT22;9234;49.344;11.120;2023-09-19T04:06:13;16.40;99.90
18218;DHT22;9234;49.344;11.120;2023-09-19T04:08:43;16.30;99.90
18218;DHT22;9234;49.344;11.120;2023-09-19T04:11:13;16.30;99.90
18218;DHT22;9234;49.344;11.120;2023-09-19T04:13:41;16.20;99.90
18218;DHT22;9234;49.344;11.120;2023-09-19T04:16:10;16.20;99.90
18218;DHT22;9234;49.344;11.120;2023-09-19T04:18:40;16.10;99.90
18218;DHT22;9234;49.344;11.120;2023-09-19T04:21:09;16.10;99.90
18218;DHT22;9234;49.344;11.120;2023-09-19T04:23:37;16.10;99.90
18218;DHT22;9234;49.344;11.120;2023-09-19T04:26:06;16.00;99.90
18218;DHT22;9234;49.344;11.120;2023-09-19T04:28:35;16.00;99.90
18218;DHT22;9234;49.344;11.120;2023-09-19T04:31:05;16.00;99.90
18218;DHT22;9234;49.344;11.120;2023-09-19T04:33:35;16.00;99.90
18218;DHT22;9234;49.344;11.120;2023-09-19T04:36:05;15.90;99.90
18218;DHT22;9234;49.344;11.120;2023-09-19T04:38:54;15.90;99.90
18218;DHT22;9234;49.344;11.120;2023-09-19T04:41:23;15.80;99.90
18218;DHT22;9234;49.344;11.120;2023-09-19T04:43:51;15.80;99.90
18218;DHT22;9234;49.344;11.120;2023-09-19T04:46:19;15.70;99.90
18218;DHT22;9234;49.344;11.120;2023-09-19T04:48:48;15.70;99.90
18218;DHT22;9234;49.344;11.120;2023-09-19T04:51:17;15.70;99.90
18218;DHT22;9234;49.344;11.120;2023-09-19T04:53:47;15.60;99.90
18218;DHT22;9234;49.344;11.120;2023-09-19T04:56:16;15.60;99.90
18218;DHT22;9234;49.344;11.120;2023-09-19T04:58:44;15.50;99.90
18218;DHT22;9234;49.344;11.120;2023-09-19T05:01:13;15.50;99.90
18218;DHT22;9234;49.344;11.120;2023-09-19T05:03:43;15.40;99.90
18218;DHT22;9234;49.344;11.120;2023-09-19T05:06:17;15.50;99.90
18218;DHT22;9234;49.344;11.120;2023-09-19T05:08:47;15.50;99.90
18218;DHT22;9234;49.344;11.120;2023-09-19T05:11:17;15.50;99.90
18218;DHT22;9234;49.344;11.120;2023-09-19T05:13:46;15.50;99.90
18218;DHT22;9234;49.344;11.120;2023-09-19T05:16:14;15.60;99.90
18218;DHT22;9234;49.344;11.120;2023-09-19T05:18:43;15.70;99.90
18218;DHT22;9234;49.344;11.120;2023-09-19T05:21:11;15.70;99.90
18218;DHT22;9234;49.344;11.120;2023-09-19T05:23:42;15.80;99.90
18218;DHT22;9234;49.344;11.120;2023-09-19T05:26:12;15.80;99.90
18218;DHT22;9234;49.344;11.120;2023-09-19T05:28:43;15.90;99.90
18218;DHT22;9234;49.344;11.120;2023-09-19T05:31:11;15.90;99.90
18218;DHT22;9234;49.344;11.120;2023-09-19T05:33:39;15.90;99.90
18218;DHT22;9234;49.344;11.120;2023-09-19T05:36:07;15.90;99.90
18218;DHT22;9234;49.344;11.120;2023-09-19T05:38:38;15.90;99.90
18218;DHT22;9234;49.344;11.120;2023-09-19T05:41:10;15.90;99.90
18218;DHT22;9234;49.344;11.120;2023-09-19T05:43:40;15.90;99.90
18218;DHT22;9234;49.344;11.120;2023-09-19T05:46:09;15.90;99.90
18218;DHT22;9234;49.344;11.120;2023-09-19T05:48:38;16.00;99.90
18218;DHT22;9234;49.344;11.120;2023-09-19T05:51:08;16.00;99.90
18218;DHT22;9234;49.344;11.120;2023-09-19T05:53:36;16.10;99.90
18218;DHT22;9234;49.344;11.120;2023-09-19T05:56:05;16.10;99.90
18218;DHT22;9234;49.344;11.120;2023-09-19T05:58:34;16.20;99.90
18218;DHT22;9234;49.344;11.120;2023-09-19T06:01:03;16.20;99.90
18218;DHT22;9234;49.344;11.120;2023-09-19T06:03:31;16.20;99.90
18218;DHT22;9234;49.344;11.120;2023-09-19T06:05:59;16.30;99.90
18218;DHT22;9234;49.344;11.120;2023-09-19T06:08:27;16.30;99.90
18218;DHT22;9234;49.344;11.120;2023-09-19T06:10:57;16.40;99.90
18218;DHT22;9234;49.344;11.120;2023-09-19T06:13:28;16.40;99.90
18218;DHT22;9234;49.344;11.120;2023-09-19T06:15:57;16.40;99.90
18218;DHT22;9234;49.344;11.120;2023-09-19T06:18:26;16.50;99.90
18218;DHT22;9234;49.344;11.120;2023-09-19T06:20:56;16.50;99.90
18218;DHT22;9234;49.344;11.120;2023-09-19T06:23:25;16.60;99.90
18218;DHT22;9234;49.344;11.120;2023-09-19T06:25:56;16.60;99.90
18218;DHT22;9234;49.344;11.120;2023-09-19T06:28:24;16.70;99.90
18218;DHT22;9234;49.344;11.120;2023-09-19T06:30:54;16.80;99.90
18218;DHT22;9234;49.344;11.120;2023-09-19T06:33:25;16.80;99.90
18218;DHT22;9234;49.344;11.120;2023-09-19T06:35:53;16.90;99.90
18218;DHT22;9234;49.344;11.120;2023-09-19T06:38:26;16.90;99.90
18218;DHT22;9234;49.344;11.120;2023-09-19T06:40:54;17.00;99.90
18218;DHT22;9234;49.344;11.120;2023-09-19T06:43:24;17.00;99.90
18218;DHT22;9234;49.344;11.120;2023-09-19T06:45:53;17.00;99.90
18218;DHT22;9234;49.344;11.120;2023-09-19T06:48:22;17.10;99.90
18218;DHT22;9234;49.344;11.120;2023-09-19T06:50:53;17.10;99.90
18218;DHT22;9234;49.344;11.120;2023-09-19T06:53:22;17.10;99.90
18218;DHT22;9234;49.344;11.120;2023-09-19T06:55:51;17.20;99.90
18218;DHT22;9234;49.344;11.120;2023-09-19T06:58:20;17.30;99.90
18218;DHT22;9234;49.344;11.120;2023-09-19T07:00:48;17.30;99.90
18218;DHT22;9234;49.344;11.120;2023-09-19T07:03:17;17.40;99.90
18218;DHT22;9234;49.344;11.120;2023-09-19T07:05:48;17.40;99.90
18218;DHT22;9234;49.344;11.120;2023-09-19T07:08:17;17.50;99.90
18218;DHT22;9234;49.344;11.120;2023-09-19T07:10:45;17.60;99.90
18218;DHT22;9234;49.344;11.120;2023-09-19T07:13:16;17.60;99.90
18218;DHT22;9234;49.344;11.120;2023-09-19T07:15:45;17.60;99.90
18218;DHT22;9234;49.344;11.120;2023-09-19T07:18:17;17.60;99.90
18218;DHT22;9234;49.344;11.120;2023-09-19T07:20:48;17.70;99.90
18218;DHT22;9234;49.344;11.120;2023-09-19T07:23:17;17.70;99.90
18218;DHT22;9234;49.344;11.120;2023-09-19T07:25:47;17.80;99.90
18218;DHT22;9234;49.344;11.120;2023-09-19T07:28:16;17.80;99.90
18218;DHT22;9234;49.344;11.120;2023-09-19T07:30:45;17.90;99.90
18218;DHT22;9234;49.344;11.120;2023-09-19T07:33:13;17.90;99.90
18218;DHT22;9234;49.344;11.120;2023-09-19T07:35:45;18.00;99.90
18218;DHT22;9234;49.344;11.120;2023-09-19T07:38:15;18.10;99.90
18218;DHT22;9234;49.344;11.120;2023-09-19T07:40:44;18.20;99.90
18218;DHT22;9234;49.344;11.120;2023-09-19T07:43:13;18.30;99.90
18218;DHT22;9234;49.344;11.120;2023-09-19T07:45:41;18.30;99.90
18218;DHT22;9234;49.344;11.120;2023-09-19T07:48:09;18.40;99.90
18218;DHT22;9234;49.344;11.120;2023-09-19T07:50:41;18.40;99.90
18218;DHT22;9234;49.344;11.120;2023-09-19T07:53:11;18.40;99.90
18218;DHT22;9234;49.344;11.120;2023-09-19T07:55:41;18.50;99.90
18218;DHT22;9234;49.344;11.120;2023-09-19T07:58:10;18.50;99.90
18218;DHT22;9234;49.344;11.120;2023-09-19T08:00:40;18.50;99.90
18218;DHT22;9234;49.344;11.120;2023-09-19T08:03:08;18.60;99.90
18218;DHT22;9234;49.344;11.120;2023-09-19T08:05:44;18.50;99.90
18218;DHT22;9234;49.344;11.120;2023-09-19T08:08:13;18.50;99.90
18218;DHT22;9234;49.344;11.120;2023-09-19T08:10:44;18.60;99.90
18218;DHT22;9234;49.344;11.120;2023-09-19T08:13:16;18.60;99.90
18218;DHT22;9234;49.344;11.120;2023-09-19T08:15:45;18.70;99.90
18218;DHT22;9234;49.344;11.120;2023-09-19T08:18:14;18.80;99.90
18218;DHT22;9234;49.344;11.120;2023-09-19T08:20:43;18.80;99.90
18218;DHT22;9234;49.344;11.120;2023-09-19T08:23:17;18.90;99.90
18218;DHT22;9234;49.344;11.120;2023-09-19T08:25:49;18.90;99.90
18218;DHT22;9234;49.344;11.120;2023-09-19T08:28:17;18.90;99.90
18218;DHT22;9234;49.344;11.120;2023-09-19T08:30:51;18.90;99.90
18218;DHT22;9234;49.344;11.120;2023-09-19T08:33:20;18.90;99.90
18218;DHT22;9234;49.344;11.120;2023-09-19T08:35:48;18.90;99.90
18218;DHT22;9234;49.344;11.120;2023-09-19T08:38:16;19.00;99.90
18218;DHT22;9234;49.344;11.120;2023-09-19T08:40:44;19.20;99.90
18218;DHT22;9234;49.344;11.120;2023-09-19T08:43:14;19.30;99.90
18218;DHT22;9234;49.344;11.120;2023-09-19T08:45:42;19.50;99.90
18218;DHT22;9234;49.344;11.120;2023-09-19T08:48:17;19.60;99.90
18218;DHT22;9234;49.344;11.120;2023-09-19T08:50:55;19.80;99.90
18218;DHT22;9234;49.344;11.120;2023-09-19T08:53:28;19.90;99.90
18218;DHT22;9234;49.344;11.120;2023-09-19T08:56:03;20.00;99.90
18218;DHT22;9234;49.344;11.120;2023-09-19T08:58:45;20.00;99.90
18218;DHT22;9234;49.344;11.120;2023-09-19T09:01:18;20.00;99.90
18218;DHT22;9234;49.344;11.120;2023-09-19T09:03:52;20.00;99.90
18218;DHT22;9234;49.344;11.120;2023-09-19T09:06:23;20.10;99.90
18218;DHT22;9234;49.344;11.120;2023-09-19T09:08:52;20.20;99.90
18218;DHT22;9234;49.344;11.120;2023-09-19T09:11:21;20.30;99.90
18218;DHT22;9234;49.344;11.120;2023-09-19T09:13:53;20.40;99.90
18218;DHT22;9234;49.344;11.120;2023-09-19T09:16:21;20.30;99.90
18218;DHT22;9234;49.344;11.120;2023-09-19T09:18:53;20.40;99.70
18218;DHT22;9234;49.344;11.120;2023-09-19T09:21:22;20.40;99.70
18218;DHT22;9234;49.344;11.120;2023-09-19T09:23:53;20.30;98.30
18218;DHT22;9234;49.344;11.120;2023-09-19T09:26:41;20.20;98.00
18218;DHT22;9234;49.344;11.120;2023-09-19T09:29:12;20.10;97.90
18218;DHT22;9234;49.344;11.120;2023-09-19T09:31:45;20.00;98.60
18218;DHT22;9234;49.344;11.120;2023-09-19T09:34:15;20.00;99.00
18218;DHT22;9234;49.344;11.120;2023-09-19T09:36:48;20.00;99.70
18218;DHT22;9234;49.344;11.120;2023-09-19T09:39:30;20.00;99.00
18218;DHT22;9234;49.344;11.120;2023-09-19T09:41:59;20.00;99.20
18218;DHT22;9234;49.344;11.120;2023-09-19T09:44:29;20.10;99.20
18218;DHT22;9234;49.344;11.120;2023-09-19T09:46:59;20.10;99.40
18218;DHT22;9234;49.344;11.120;2023-09-19T09:49:48;20.20;99.20
18218;DHT22;9234;49.344;11.120;2023-09-19T09:52:44;20.30;98.80
18218;DHT22;9234;49.344;11.120;2023-09-19T09:55:14;20.30;99.10
18218;DHT22;9234;49.344;11.120;2023-09-19T09:57:42;20.50;98.50
18218;DHT22;9234;49.344;11.120;2023-09-19T10:00:13;20.60;98.10
18218;DHT22;9234;49.344;11.120;2023-09-19T10:02:47;20.60;98.50
18218;DHT22;9234;49.344;11.120;2023-09-19T10:05:16;20.80;97.70
18218;DHT22;9234;49.344;11.120;2023-09-19T10:07:55;20.90;97.80
18218;DHT22;9234;49.344;11.120;2023-09-19T10:10:31;20.90;97.20
18218;DHT22;9234;49.344;11.120;2023-09-19T10:13:20;21.00;97.00
18218;DHT22;9234;49.344;11.120;2023-09-19T10:15:51;21.10;97.00
18218;DHT22;9234;49.344;11.120;2023-09-19T10:18:23;21.10;96.20
18218;DHT22;9234;49.344;11.120;2023-09-19T10:20:53;21.10;95.90
18218;DHT22;9234;49.344;11.120;2023-09-19T10:23:23;20.90;96.40
18218;DHT22;9234;49.344;11.120;2023-09-19T10:25:56;20.90;96.60
18218;DHT22;9234;49.344;11.120;2023-09-19T10:28:28;20.90;97.20
18218;DHT22;9234;49.344;11.120;2023-09-19T10:31:00;21.10;97.90
18218;DHT22;9234;49.344;11.120;2023-09-19T10:33:35;21.40;97.10
18218;DHT22;9234;49.344;11.120;2023-09-19T10:36:05;21.50;94.90
18218;DHT22;9234;49.344;11.120;2023-09-19T10:38:35;21.70;95.60
18218;DHT22;9234;49.344;11.120;2023-09-19T10:41:08;21.80;95.00
18218;DHT22;9234;49.344;11.120;2023-09-19T10:43:43;21.90;93.90
18218;DHT22;9234;49.344;11.120;2023-09-19T10:46:17;22.20;94.70
18218;DHT22;9234;49.344;11.120;2023-09-19T10:48:46;22.30;92.40
18218;DHT22;9234;49.344;11.120;2023-09-19T10:51:19;22.30;92.30
18218;DHT22;9234;49.344;11.120;2023-09-19T10:54:01;22.20;92.70
18218;DHT22;9234;49.344;11.120;2023-09-19T10:56:42;22.20;92.70
18218;DHT22;9234;49.344;11.120;2023-09-19T10:59:15;22.40;93.20
18218;DHT22;9234;49.344;11.120;2023-09-19T11:01:48;22.50;92.60
18218;DHT22;9234;49.344;11.120;2023-09-19T11:04:23;22.70;93.40
18218;DHT22;9234;49.344;11.120;2023-09-19T11:07:04;23.00;92.30
18218;DHT22;9234;49.344;11.120;2023-09-19T11:09:44;23.00;91.30
18218;DHT22;9234;49.344;11.120;2023-09-19T11:12:48;22.80;91.10
18218;DHT22;9234;49.344;11.120;2023-09-19T11:18:54;22.80;90.10
18218;DHT22;9234;49.344;11.120;2023-09-19T11:21:53;22.70;86.60
18218;DHT22;9234;49.344;11.120;2023-09-19T11:24:29;22.90;87.60
18218;DHT22;9234;49.344;11.120;2023-09-19T11:27:12;23.10;85.30
18218;DHT22;9234;49.344;11.120;2023-09-19T11:29:44;23.10;85.80
18218;DHT22;9234;49.344;11.120;2023-09-19T11:32:13;23.20;88.20
18218;DHT22;9234;49.344;11.120;2023-09-19T11:34:48;23.20;84.10
18218;DHT22;9234;49.344;11.120;2023-09-19T11:40:37;23.00;83.90
18218;DHT22;9234;49.344;11.120;2023-09-19T11:43:27;23.20;83.20
18218;DHT22;9234;49.344;11.120;2023-09-19T11:46:04;23.30;84.80
18218;DHT22;9234;49.344;11.120;2023-09-19T11:48:35;23.50;82.40
18218;DHT22;9234;49.344;11.120;2023-09-19T11:51:17;23.50;81.00
18218;DHT22;9234;49.344;11.120;2023-09-19T11:53:56;23.40;82.50
18218;DHT22;9234;49.344;11.120;2023-09-19T11:56:27;23.10;83.90
18218;DHT22;9234;49.344;11.120;2023-09-19T11:58:58;22.90;85.20
18218;DHT22;9234;49.344;11.120;2023-09-19T12:01:29;22.70;86.00
18218;DHT22;9234;49.344;11.120;2023-09-19T12:04:00;22.40;83.90
18218;DHT22;9234;49.344;11.120;2023-09-19T12:06:33;22.30;84.20
18218;DHT22;9234;49.344;11.120;2023-09-19T12:09:03;22.50;85.00
18218;DHT22;9234;49.344;11.120;2023-09-19T12:11:41;22.70;85.40
18218;DHT22;9234;49.344;11.120;2023-09-19T12:14:11;22.80;85.40
18218;DHT22;9234;49.344;11.120;2023-09-19T12:16:52;22.90;84.20
18218;DHT22;9234;49.344;11.120;2023-09-19T12:19:22;22.90;83.30
18218;DHT22;9234;49.344;11.120;2023-09-19T12:21:56;22.80;82.70
18218;DHT22;9234;49.344;11.120;2023-09-19T12:24:27;22.60;83.60
18218;DHT22;9234;49.344;11.120;2023-09-19T12:27:01;22.50;85.10
18218;DHT22;9234;49.344;11.120;2023-09-19T12:29:42;22.60;84.90
18218;DHT22;9234;49.344;11.120;2023-09-19T12:32:11;22.60;83.60
18218;DHT22;9234;49.344;11.120;2023-09-19T12:34:40;22.60;83.70
18218;DHT22;9234;49.344;11.120;2023-09-19T12:37:12;22.70;83.90
18218;DHT22;9234;49.344;11.120;2023-09-19T12:39:48;23.10;85.10
18218;DHT22;9234;49.344;11.120;2023-09-19T12:42:20;23.50;82.40
18218;DHT22;9234;49.344;11.120;2023-09-19T12:44:50;23.70;80.70
18218;DHT22;9234;49.344;11.120;2023-09-19T12:47:22;24.00;79.60
18218;DHT22;9234;49.344;11.120;2023-09-19T12:50:11;24.00;77.10
18218;DHT22;9234;49.344;11.120;2023-09-19T12:52:44;23.80;78.00
18218;DHT22;9234;49.344;11.120;2023-09-19T12:55:23;23.70;79.50
18218;DHT22;9234;49.344;11.120;2023-09-19T12:58:02;23.60;79.80
18218;DHT22;9234;49.344;11.120;2023-09-19T13:00:40;23.50;80.30
18218;DHT22;9234;49.344;11.120;2023-09-19T13:03:16;23.50;80.50
18218;DHT22;9234;49.344;11.120;2023-09-19T13:05:50;23.40;80.90
18218;DHT22;9234;49.344;11.120;2023-09-19T13:08:24;23.60;80.50
18218;DHT22;9234;49.344;11.120;2023-09-19T13:11:04;23.70;79.00
18218;DHT22;9234;49.344;11.120;2023-09-19T13:13:38;23.60;79.20
18218;DHT22;9234;49.344;11.120;2023-09-19T13:16:08;23.70;81.30
18218;DHT22;9234;49.344;11.120;2023-09-19T13:18:45;23.90;80.90
18218;DHT22;9234;49.344;11.120;2023-09-19T13:21:26;24.20;79.30
18218;DHT22;9234;49.344;11.120;2023-09-19T13:24:20;24.60;78.80
18218;DHT22;9234;49.344;11.120;2023-09-19T13:26:49;24.90;76.00
18218;DHT22;9234;49.344;11.120;2023-09-19T13:29:18;25.20;76.90
18218;DHT22;9234;49.344;11.120;2023-09-19T13:31:47;25.50;72.50
18218;DHT22;9234;49.344;11.120;2023-09-19T13:34:15;25.60;72.40
18218;DHT22;9234;49.344;11.120;2023-09-19T13:36:45;25.50;72.50
18218;DHT22;9234;49.344;11.120;2023-09-19T13:39:16;25.70;73.00
18218;DHT22;9234;49.344;11.120;2023-09-19T13:41:45;25.90;71.60
18218;DHT22;9234;49.344;11.120;2023-09-19T13:44:14;25.70;72.60
18218;DHT22;9234;49.344;11.120;2023-09-19T13:46:44;25.70;72.00
18218;DHT22;9234;49.344;11.120;2023-09-19T13:49:14;25.80;72.00
18218;DHT22;9234;49.344;11.120;2023-09-19T13:51:42;25.60;70.80
18218;DHT22;9234;49.344;11.120;2023-09-19T13:54:11;25.30;72.00
18218;DHT22;9234;49.344;11.120;2023-09-19T13:56:42;25.10;73.10
18218;DHT22;9234;49.344;11.120;2023-09-19T13:59:11;25.20;74.40
18218;DHT22;9234;49.344;11.120;2023-09-19T14:01:39;25.30;73.70
18218;DHT22;9234;49.344;11.120;2023-09-19T14:04:08;25.40;71.90
18218;DHT22;9234;49.344;11.120;2023-09-19T14:06:41;25.50;72.00
18218;DHT22;9234;49.344;11.120;2023-09-19T14:09:10;25.80;72.80
18218;DHT22;9234;49.344;11.120;2023-09-19T14:11:41;26.10;70.10
18218;DHT22;9234;49.344;11.120;2023-09-19T14:14:12;26.40;70.50
18218;DHT22;9234;49.344;11.120;2023-09-19T14:16:42;26.60;69.40
18218;DHT22;9234;49.344;11.120;2023-09-19T14:19:10;27.00;70.10
18218;DHT22;9234;49.344;11.120;2023-09-19T14:21:38;27.50;66.70
18218;DHT22;9234;49.344;11.120;2023-09-19T14:24:07;27.80;66.60
18218;DHT22;9234;49.344;11.120;2023-09-19T14:26:36;28.10;65.20
18218;DHT22;9234;49.344;11.120;2023-09-19T14:29:05;28.30;63.80
18218;DHT22;9234;49.344;11.120;2023-09-19T14:31:37;28.40;63.90
18218;DHT22;9234;49.344;11.120;2023-09-19T14:34:07;28.70;62.60
18218;DHT22;9234;49.344;11.120;2023-09-19T14:36:37;28.60;60.10
18218;DHT22;9234;49.344;11.120;2023-09-19T14:39:06;28.30;59.30
18218;DHT22;9234;49.344;11.120;2023-09-19T14:41:35;28.40;61.40
18218;DHT22;9234;49.344;11.120;2023-09-19T14:44:05;28.70;62.10
18218;DHT22;9234;49.344;11.120;2023-09-19T14:46:35;28.70;59.50
18218;DHT22;9234;49.344;11.120;2023-09-19T14:49:04;28.30;58.10
18218;DHT22;9234;49.344;11.120;2023-09-19T14:51:32;28.10;59.80
18218;DHT22;9234;49.344;11.120;2023-09-19T14:54:03;27.90;59.00
18218;DHT22;9234;49.344;11.120;2023-09-19T14:56:31;27.60;58.80
18218;DHT22;9234;49.344;11.120;2023-09-19T14:58:59;27.60;60.10
18218;DHT22;9234;49.344;11.120;2023-09-19T15:01:33;27.50;59.70
18218;DHT22;9234;49.344;11.120;2023-09-19T15:04:02;27.30;59.70
18218;DHT22;9234;49.344;11.120;2023-09-19T15:06:31;27.10;60.90
18218;DHT22;9234;49.344;11.120;2023-09-19T15:08:59;27.00;62.10
18218;DHT22;9234;49.344;11.120;2023-09-19T15:11:28;27.10;61.50
18218;DHT22;9234;49.344;11.120;2023-09-19T15:13:56;27.30;62.20
18218;DHT22;9234;49.344;11.120;2023-09-19T15:16:27;27.50;60.40
18218;DHT22;9234;49.344;11.120;2023-09-19T15:18:55;27.60;58.90
18218;DHT22;9234;49.344;11.120;2023-09-19T15:21:23;27.20;58.90
18218;DHT22;9234;49.344;11.120;2023-09-19T15:23:52;27.30;58.70
18218;DHT22;9234;49.344;11.120;2023-09-19T15:26:20;27.20;59.30
18218;DHT22;9234;49.344;11.120;2023-09-19T15:28:49;27.10;59.60
18218;DHT22;9234;49.344;11.120;2023-09-19T15:31:17;27.30;59.80
18218;DHT22;9234;49.344;11.120;2023-09-19T15:33:47;27.40;59.30
18218;DHT22;9234;49.344;11.120;2023-09-19T15:36:17;27.10;59.30
18218;DHT22;9234;49.344;11.120;2023-09-19T15:39:07;26.90;59.70
18218;DHT22;9234;49.344;11.120;2023-09-19T15:41:39;26.70;61.50
18218;DHT22;9234;49.344;11.120;2023-09-19T15:44:12;26.80;61.00
18218;DHT22;9234;49.344;11.120;2023-09-19T15:46:43;26.70;60.50
18218;DHT22;9234;49.344;11.120;2023-09-19T15:49:13;26.60;60.20
18218;DHT22;9234;49.344;11.120;2023-09-19T15:51:41;26.50;61.20
18218;DHT22;9234;49.344;11.120;2023-09-19T15:54:11;26.20;61.50
18218;DHT22;9234;49.344;11.120;2023-09-19T15:56:41;25.80;60.90
18218;DHT22;9234;49.344;11.120;2023-09-19T15:59:10;25.50;62.80
18218;DHT22;9234;49.344;11.120;2023-09-19T16:01:41;25.40;63.00
18218;DHT22;9234;49.344;11.120;2023-09-19T16:04:12;25.30;63.30
18218;DHT22;9234;49.344;11.120;2023-09-19T16:06:41;25.00;64.00
18218;DHT22;9234;49.344;11.120;2023-09-19T16:09:09;24.60;64.60